createdAt,value
2023-04-20T00:02:04.149Z,95264.72
2023-04-20T00:04:33.183Z,95270.00
2023-04-20T00:07:00.958Z,95261.75
2023-04-20T00:09:29.291Z,95260.69
2023-04-20T00:11:57.160Z,95264.25
2023-04-20T00:14:25.698Z,95263.22
2023-04-20T00:16:53.639Z,95264.44
2023-04-20T00:19:22.569Z,95254.19
2023-04-20T00:21:50.495Z,95261.31
2023-04-20T00:24:18.916Z,95262.47
2023-04-20T00:26:46.670Z,95256.22
2023-04-20T00:29:15.095Z,95250.38
2023-04-20T00:31:43.475Z,95241.00
2023-04-20T00:34:11.771Z,95242.34
2023-04-20T00:36:40.017Z,95243.88
2023-04-20T00:39:08.249Z,95237.75
2023-04-20T00:41:36.378Z,95223.91
2023-04-20T00:44:04.924Z,95229.28
2023-04-20T00:46:34.774Z,95232.56
2023-04-20T00:49:03.162Z,95238.53
2023-04-20T00:51:32.139Z,95236.41
2023-04-20T00:54:01.143Z,95229.59
2023-04-20T00:56:29.497Z,95226.81
2023-04-20T00:58:58.071Z,95220.00
2023-04-20T01:01:27.280Z,95226.94
2023-04-20T01:03:55.924Z,95240.06
2023-04-20T01:06:24.106Z,95240.88
2023-04-20T01:08:55.414Z,95232.31
2023-04-20T01:11:23.224Z,95224.53
2023-04-20T01:13:51.574Z,95224.16
2023-04-20T01:16:19.531Z,95233.56
2023-04-20T01:18:49.484Z,95232.38
2023-04-20T01:21:20.776Z,95223.56
2023-04-20T01:23:49.278Z,95219.63
2023-04-20T01:26:19.317Z,95212.44
2023-04-20T01:28:47.843Z,95216.47
2023-04-20T01:31:17.182Z,95226.34
2023-04-20T01:33:45.519Z,95226.25
2023-04-20T01:36:14.211Z,95229.22
2023-04-20T01:38:42.540Z,95226.19
2023-04-20T01:41:11.390Z,95225.69
2023-04-20T01:43:40.613Z,95228.00
2023-04-20T01:46:08.588Z,95234.25
2023-04-20T01:48:36.844Z,95226.44
2023-04-20T01:51:04.925Z,95228.56
2023-04-20T01:53:34.256Z,95235.47
2023-04-20T01:56:02.096Z,95222.44
2023-04-20T01:58:30.702Z,95232.13
2023-04-20T02:00:58.786Z,95226.09
2023-04-20T02:03:28.586Z,95223.59
2023-04-20T02:05:56.619Z,95217.81
2023-04-20T02:08:28.154Z,95214.25
2023-04-20T02:10:55.992Z,95212.44
2023-04-20T02:13:24.628Z,95207.16
2023-04-20T02:15:52.616Z,95195.66
2023-04-20T02:18:23.380Z,95196.69
2023-04-20T02:20:52.770Z,95190.59
2023-04-20T02:23:21.321Z,95196.25
2023-04-20T02:25:49.132Z,95199.88
2023-04-20T02:28:17.386Z,95197.69
2023-04-20T02:30:45.355Z,95196.22
2023-04-20T02:33:13.561Z,95189.50
2023-04-20T02:35:41.375Z,95199.56
2023-04-20T02:38:12.422Z,95189.00
2023-04-20T02:40:40.686Z,95194.84
2023-04-20T02:43:09.637Z,95209.03
2023-04-20T02:45:38.978Z,95195.13
2023-04-20T02:48:08.690Z,95202.53
2023-04-20T02:50:38.685Z,95206.44
2023-04-20T02:53:19.708Z,95190.91
2023-04-20T02:55:53.510Z,95188.13
2023-04-20T02:58:33.861Z,95171.44
2023-04-20T03:01:18.196Z,95182.63
2023-04-20T03:03:49.851Z,95191.84
2023-04-20T03:06:18.163Z,95188.44
2023-04-20T03:08:52.795Z,95195.72
2023-04-20T03:11:46.127Z,95198.13
2023-04-20T03:14:23.608Z,95196.56
2023-04-20T03:16:51.871Z,95193.78
2023-04-20T03:19:20.183Z,95197.25
2023-04-20T03:21:48.111Z,95193.06
2023-04-20T03:24:17.530Z,95199.31
2023-04-20T03:26:45.488Z,95205.22
2023-04-20T03:29:19.930Z,95197.69
2023-04-20T03:31:48.202Z,95200.16
2023-04-20T03:34:16.653Z,95188.78
2023-04-20T03:36:45.527Z,95188.56
2023-04-20T03:39:13.821Z,95190.53
2023-04-20T03:41:41.606Z,95188.72
2023-04-20T03:44:10.125Z,95198.81
2023-04-20T03:46:38.556Z,95190.53
2023-04-20T03:49:07.063Z,95183.53
2023-04-20T03:51:35.002Z,95187.38
2023-04-20T03:54:03.185Z,95183.47
2023-04-20T03:56:31.367Z,95181.81
2023-04-20T03:59:00.099Z,95183.28
2023-04-20T04:01:28.754Z,95179.75
2023-04-20T04:03:57.540Z,95184.94
2023-04-20T04:06:25.895Z,95188.56
2023-04-20T04:08:54.122Z,95179.72
2023-04-20T04:11:21.980Z,95174.19
2023-04-20T04:13:50.495Z,95170.00
2023-04-20T04:16:18.484Z,95163.94
2023-04-20T04:18:47.832Z,95167.97
2023-04-20T04:21:15.946Z,95169.13
2023-04-20T04:23:49.880Z,95164.09
2023-04-20T04:26:40.665Z,95167.44
2023-04-20T04:29:10.751Z,95165.91
2023-04-20T04:31:38.649Z,95158.81
2023-04-20T04:34:14.497Z,95159.66
2023-04-20T04:36:48.931Z,95158.09
2023-04-20T04:39:21.490Z,95162.31
2023-04-20T04:41:57.982Z,95174.53
2023-04-20T04:44:34.329Z,95170.81
2023-04-20T04:47:05.835Z,95168.38
2023-04-20T04:49:36.042Z,95175.50
2023-04-20T04:52:04.132Z,95193.06
2023-04-20T04:54:32.372Z,95184.94
2023-04-20T04:57:00.284Z,95165.34
2023-04-20T04:59:29.181Z,95163.38
2023-04-20T05:01:57.025Z,95157.72
2023-04-20T05:04:25.949Z,95167.59
2023-04-20T05:06:53.872Z,95168.56
2023-04-20T05:09:22.241Z,95169.66
2023-04-20T05:11:50.074Z,95169.69
2023-04-20T05:14:18.406Z,95171.81
2023-04-20T05:16:46.294Z,95156.34
2023-04-20T05:19:14.647Z,95166.84
2023-04-20T05:21:42.505Z,95162.56
2023-04-20T05:24:11.424Z,95151.41
2023-04-20T05:26:39.373Z,95158.66
2023-04-20T05:29:07.659Z,95159.72
2023-04-20T05:31:35.492Z,95163.81
2023-04-20T05:34:03.929Z,95157.72
2023-04-20T05:36:33.836Z,95156.94
2023-04-20T05:39:02.224Z,95156.69
2023-04-20T05:41:30.110Z,95155.69
2023-04-20T05:43:58.555Z,95156.47
2023-04-20T05:46:26.346Z,95145.25
2023-04-20T05:48:54.599Z,95146.03
2023-04-20T05:51:22.852Z,95148.28
2023-04-20T05:53:51.132Z,95145.28
2023-04-20T05:56:19.032Z,95141.75
2023-04-20T05:58:47.705Z,95130.06
2023-04-20T06:01:15.689Z,95123.47
2023-04-20T06:03:44.079Z,95118.34
2023-04-20T06:06:12.425Z,95114.56
2023-04-20T06:08:40.868Z,95110.72
2023-04-20T06:11:08.797Z,95104.38
2023-04-20T06:13:37.130Z,95109.97
2023-04-20T06:16:09.876Z,95103.84
2023-04-20T06:18:38.238Z,95100.81
2023-04-20T06:21:06.549Z,95107.94
2023-04-20T06:23:34.860Z,95100.28
2023-04-20T06:26:02.762Z,95103.59
2023-04-20T06:28:31.016Z,95104.34
2023-04-20T06:30:58.975Z,95113.53
2023-04-20T06:33:27.314Z,95105.91
2023-04-20T06:35:56.842Z,95103.81
2023-04-20T06:38:28.438Z,95108.06
2023-04-20T06:40:59.113Z,95111.63
2023-04-20T06:43:27.367Z,95114.66
2023-04-20T06:45:55.532Z,95103.41
2023-04-20T06:48:32.321Z,95104.41
2023-04-20T06:51:02.064Z,95092.63
2023-04-20T06:53:30.330Z,95100.94
2023-04-20T06:55:58.189Z,95097.63
2023-04-20T06:58:26.473Z,95100.00
2023-04-20T07:00:54.401Z,95088.03
2023-04-20T07:03:22.807Z,95085.16
2023-04-20T07:05:51.176Z,95075.13
2023-04-20T07:08:19.577Z,95061.31
2023-04-20T07:10:47.538Z,95060.44
2023-04-20T07:13:16.075Z,95049.03
2023-04-20T07:15:46.296Z,95035.31
2023-04-20T07:18:14.510Z,95045.88
2023-04-20T07:20:42.673Z,95043.00
2023-04-20T07:23:11.136Z,95048.63
2023-04-20T07:25:39.229Z,95051.13
2023-04-20T07:28:07.701Z,95044.78
2023-04-20T07:30:36.087Z,95041.63
2023-04-20T07:33:04.492Z,95049.19
2023-04-20T07:35:32.506Z,95038.03
2023-04-20T07:38:01.073Z,95022.91
2023-04-20T07:40:29.230Z,95026.94
2023-04-20T07:42:57.508Z,95026.28
2023-04-20T07:45:25.949Z,95030.31
2023-04-20T07:47:56.118Z,95032.31
2023-04-20T07:50:24.419Z,95032.84
2023-04-20T07:52:52.589Z,95025.22
2023-04-20T07:55:20.630Z,95018.75
2023-04-20T07:57:49.173Z,95016.94
2023-04-20T08:00:18.471Z,95015.28
2023-04-20T08:02:47.774Z,95001.59
2023-04-20T08:05:16.933Z,94996.91
2023-04-20T08:07:45.685Z,94997.06
2023-04-20T08:10:14.142Z,94989.59
2023-04-20T08:12:42.880Z,94989.47
2023-04-20T08:15:11.476Z,94979.09
2023-04-20T08:17:39.944Z,94973.78
2023-04-20T08:20:08.579Z,94964.69
2023-04-20T08:22:36.892Z,94965.84
2023-04-20T08:25:05.522Z,94959.59
2023-04-20T08:27:36.276Z,94959.44
2023-04-20T08:30:04.753Z,94957.13
2023-04-20T08:32:38.693Z,94951.44
2023-04-20T08:35:07.654Z,94945.94
2023-04-20T08:37:37.910Z,94952.75
2023-04-20T08:40:06.859Z,94940.41
2023-04-20T08:42:36.369Z,94938.72
2023-04-20T08:45:05.489Z,94936.75
2023-04-20T08:47:37.303Z,94929.41
2023-04-20T08:50:06.412Z,94932.88
2023-04-20T08:52:36.058Z,94942.31
2023-04-20T08:55:04.639Z,94946.56
2023-04-20T08:57:34.399Z,94938.50
2023-04-20T09:00:05.964Z,94929.84
2023-04-20T09:02:48.805Z,94925.97
2023-04-20T09:05:24.559Z,94922.72
2023-04-20T09:07:53.843Z,94928.13
2023-04-20T09:10:24.401Z,94916.63
2023-04-20T09:12:53.539Z,94920.44
2023-04-20T09:15:29.109Z,94907.06
2023-04-20T09:17:57.824Z,94905.75
2023-04-20T09:20:33.920Z,94908.03
2023-04-20T09:23:19.594Z,94899.25
2023-04-20T09:25:53.352Z,94894.56
2023-04-20T09:28:21.901Z,94894.47
2023-04-20T09:30:51.866Z,94892.69
2023-04-20T09:33:20.269Z,94898.63
2023-04-20T09:35:48.408Z,94889.13
2023-04-20T09:38:17.390Z,94897.50
2023-04-20T09:40:45.450Z,94876.88
2023-04-20T09:43:24.410Z,94872.09
2023-04-20T09:45:52.987Z,94871.44
2023-04-20T09:48:22.113Z,94874.63
2023-04-20T09:50:51.552Z,94871.28
2023-04-20T09:53:20.924Z,94876.38
2023-04-20T09:55:50.221Z,94863.31
2023-04-20T09:58:21.072Z,94857.41
2023-04-20T10:00:50.039Z,94865.63
2023-04-20T10:03:22.679Z,94863.09
2023-04-20T10:05:52.995Z,94864.19
2023-04-20T10:08:24.581Z,94855.25
2023-04-20T10:10:52.958Z,94844.19
2023-04-20T10:13:23.556Z,94846.16
2023-04-20T10:15:51.597Z,94851.53
2023-04-20T10:18:25.215Z,94845.47
2023-04-20T10:21:06.146Z,94839.84
2023-04-20T10:23:34.600Z,94842.69
2023-04-20T10:26:04.036Z,94838.88
2023-04-20T10:28:43.303Z,94835.84
2023-04-20T10:31:14.172Z,94830.00
2023-04-20T10:33:52.656Z,94830.34
2023-04-20T10:36:32.612Z,94827.28
2023-04-20T10:39:06.238Z,94810.72
2023-04-20T10:41:34.113Z,94820.66
2023-04-20T10:44:09.540Z,94809.13
2023-04-20T10:46:37.830Z,94814.56
2023-04-20T10:49:06.953Z,94809.88
2023-04-20T10:51:35.039Z,94798.25
2023-04-20T10:54:06.252Z,94799.63
2023-04-20T10:56:42.690Z,94798.84
2023-04-20T10:59:16.828Z,94805.28
2023-04-20T11:01:46.961Z,94796.38
2023-04-20T11:04:18.618Z,94787.09
2023-04-20T11:06:48.683Z,94783.53
2023-04-20T11:09:28.697Z,94775.75
2023-04-20T11:12:12.511Z,94764.59
2023-04-20T11:14:53.278Z,94751.06
2023-04-20T11:17:31.774Z,94745.25
2023-04-20T11:20:14.602Z,94755.28
2023-04-20T11:22:43.896Z,94755.47
2023-04-20T11:25:13.155Z,94748.88
2023-04-20T11:27:42.446Z,94746.38
2023-04-20T11:30:10.999Z,94747.91
2023-04-20T11:32:39.529Z,94744.81
2023-04-20T11:35:11.407Z,94736.75
2023-04-20T11:37:51.702Z,94736.63
2023-04-20T11:40:21.569Z,94736.84
2023-04-20T11:42:49.370Z,94733.63
2023-04-20T11:45:18.206Z,94723.41
2023-04-20T11:47:47.582Z,94720.94
2023-04-20T11:50:16.043Z,94715.16
2023-04-20T11:52:44.250Z,94729.28
2023-04-20T11:55:12.876Z,94711.53
2023-04-20T11:57:40.869Z,94724.31
2023-04-20T12:00:09.735Z,94724.31
2023-04-20T12:02:43.545Z,94706.28
2023-04-20T12:05:12.246Z,94705.78
2023-04-20T12:07:40.286Z,94710.41
2023-04-20T12:10:09.334Z,94705.88
2023-04-20T12:12:38.692Z,94700.84
2023-04-20T12:15:07.848Z,94696.13
2023-04-20T12:17:35.935Z,94693.31
2023-04-20T12:20:09.066Z,94693.00
2023-04-20T12:22:37.002Z,94687.63
2023-04-20T12:25:06.843Z,94677.22
2023-04-20T12:27:34.754Z,94677.28
2023-04-20T12:30:04.487Z,94676.94
2023-04-20T12:32:34.707Z,94668.81
2023-04-20T12:35:03.128Z,94681.28
2023-04-20T12:37:32.518Z,94677.00
2023-04-20T12:40:01.025Z,94676.44
2023-04-20T12:42:31.179Z,94680.88
2023-04-20T12:44:59.587Z,94675.91
2023-04-20T12:47:27.623Z,94676.88
2023-04-20T12:49:56.508Z,94671.38
2023-04-20T12:52:24.459Z,94671.44
2023-04-20T12:54:52.955Z,94670.56
2023-04-20T12:57:20.938Z,94661.56
2023-04-20T12:59:49.575Z,94662.78
2023-04-20T13:02:18.910Z,94664.72
2023-04-20T13:04:47.353Z,94651.78
2023-04-20T13:07:15.377Z,94654.41
2023-04-20T13:09:44.038Z,94654.41
2023-04-20T13:12:12.809Z,94650.38
2023-04-20T13:14:41.279Z,94640.00
2023-04-20T13:17:09.340Z,94634.59
2023-04-20T13:19:37.546Z,94630.13
2023-04-20T13:22:05.575Z,94628.06
2023-04-20T13:24:33.822Z,94619.66
2023-04-20T13:27:02.095Z,94623.03
2023-04-20T13:29:30.609Z,94619.88
2023-04-20T13:31:58.766Z,94624.00
2023-04-20T13:34:27.051Z,94622.63
2023-04-20T13:36:55.067Z,94615.88
2023-04-20T13:39:24.261Z,94618.91
2023-04-20T13:41:52.173Z,94619.25
2023-04-20T13:44:21.083Z,94603.41
2023-04-20T13:46:49.349Z,94600.41
2023-04-20T13:49:18.032Z,94591.19
2023-04-20T13:51:46.108Z,94588.94
2023-04-20T13:54:14.365Z,94590.78
2023-04-20T13:56:42.262Z,94592.03
2023-04-20T13:59:10.873Z,94588.16
2023-04-20T14:01:39.319Z,94595.28
2023-04-20T14:04:10.288Z,94591.50
2023-04-20T14:06:38.670Z,94595.28
2023-04-20T14:09:07.490Z,94598.03
2023-04-20T14:11:35.461Z,94596.72
2023-04-20T14:14:04.314Z,94591.34
2023-04-20T14:16:32.486Z,94592.38
2023-04-20T14:19:01.185Z,94598.63
2023-04-20T14:21:29.179Z,94606.88
2023-04-20T14:23:57.488Z,94608.38
2023-04-20T14:26:27.789Z,94603.09
2023-04-20T14:28:56.304Z,94612.31
2023-04-20T14:31:24.318Z,94606.69
2023-04-20T14:33:52.472Z,94613.41
2023-04-20T14:36:20.691Z,94614.16
2023-04-20T14:38:48.845Z,94611.34
2023-04-20T14:41:17.582Z,94607.69
2023-04-20T14:43:45.924Z,94607.25
2023-04-20T14:46:13.951Z,94620.19
2023-04-20T14:48:42.206Z,94613.94
2023-04-20T14:51:10.157Z,94637.13
2023-04-20T14:53:38.562Z,94640.84
2023-04-20T14:56:06.919Z,94633.69
2023-04-20T14:58:36.443Z,94647.16
2023-04-20T15:01:04.999Z,94629.63
2023-04-20T15:03:33.430Z,94625.44
2023-04-20T15:06:02.579Z,94616.91
2023-04-20T15:08:30.940Z,94612.13
2023-04-20T15:10:59.090Z,94616.38
2023-04-20T15:13:27.442Z,94611.84
2023-04-20T15:15:55.608Z,94614.19
2023-04-20T15:18:24.139Z,94620.38
2023-04-20T15:20:53.063Z,94608.59
2023-04-20T15:23:22.479Z,94600.88
2023-04-20T15:25:50.771Z,94609.56
2023-04-20T15:28:19.097Z,94601.25
2023-04-20T15:30:47.310Z,94607.22
2023-04-20T15:33:15.767Z,94611.75
2023-04-20T15:35:43.749Z,94611.66
2023-04-20T15:38:12.169Z,94614.81
2023-04-20T15:40:40.303Z,94609.06
2023-04-20T15:43:08.822Z,94593.72
2023-04-20T15:45:38.533Z,94592.94
2023-04-20T15:48:09.206Z,94591.75
2023-04-20T15:50:37.516Z,94596.63
2023-04-20T15:53:05.797Z,94603.34
2023-04-20T15:55:35.968Z,94592.50
2023-04-20T15:58:04.288Z,94597.94
2023-04-20T16:00:32.288Z,94600.06
2023-04-20T16:03:02.023Z,94605.44
2023-04-20T16:05:30.187Z,94606.75
2023-04-20T16:07:58.522Z,94607.84
2023-04-20T16:10:29.852Z,94602.41
2023-04-20T16:12:58.319Z,94601.31
2023-04-20T16:15:26.620Z,94602.19
2023-04-20T16:17:55.236Z,94609.75
2023-04-20T16:20:23.307Z,94609.28
2023-04-20T16:22:51.723Z,94608.22
2023-04-20T16:25:23.305Z,94596.72
2023-04-20T16:27:51.926Z,94596.53
2023-04-20T16:30:19.950Z,94585.59
2023-04-20T16:32:48.319Z,94593.25
2023-04-20T16:35:16.312Z,94601.94
2023-04-20T16:37:45.331Z,94597.56
2023-04-20T16:40:13.266Z,94613.47
2023-04-20T16:42:41.670Z,94614.22
2023-04-20T16:45:10.424Z,94605.59
2023-04-20T16:47:39.807Z,94611.19
2023-04-20T16:50:08.247Z,94613.25
2023-04-20T16:52:36.777Z,94620.78
2023-04-20T16:55:05.568Z,94616.34
2023-04-20T16:57:33.776Z,94616.09
2023-04-20T17:00:01.717Z,94615.66
2023-04-20T17:02:34.779Z,94621.41
2023-04-20T17:05:03.207Z,94630.69
2023-04-20T17:07:33.947Z,94632.81
2023-04-20T17:10:01.840Z,94622.25
2023-04-20T17:12:32.239Z,94630.63
2023-04-20T17:15:01.083Z,94631.06
2023-04-20T17:17:29.665Z,94629.31
2023-04-20T17:19:57.650Z,94621.44
2023-04-20T17:22:28.757Z,94617.63
2023-04-20T17:24:56.701Z,94618.25
2023-04-20T17:27:24.963Z,94618.47
2023-04-20T17:29:52.933Z,94617.25
2023-04-20T17:32:21.311Z,94611.13
2023-04-20T17:34:51.598Z,94608.84
2023-04-20T17:37:20.851Z,94611.88
2023-04-20T17:39:48.932Z,94610.44
2023-04-20T17:42:18.023Z,94620.44
2023-04-20T17:44:46.125Z,94635.38
2023-04-20T17:47:15.221Z,94639.47
2023-04-20T17:49:43.687Z,94639.47
2023-04-20T17:52:15.429Z,94640.53
2023-04-20T17:54:43.589Z,94651.31
2023-04-20T17:57:11.854Z,94645.22
2023-04-20T17:59:39.885Z,94647.66
2023-04-20T18:02:09.538Z,94660.31
2023-04-20T18:04:39.292Z,94655.75
2023-04-20T18:07:07.949Z,94658.56
2023-04-20T18:09:35.793Z,94662.66
2023-04-20T18:12:04.188Z,94657.41
2023-04-20T18:14:32.374Z,94676.75
2023-04-20T18:17:00.881Z,94677.63
2023-04-20T18:19:29.697Z,94680.28
2023-04-20T18:21:58.090Z,94686.34
2023-04-20T18:24:26.106Z,94678.94
2023-04-20T18:26:54.461Z,94681.16
2023-04-20T18:29:22.567Z,94685.91
2023-04-20T18:31:51.422Z,94689.63
2023-04-20T18:34:19.598Z,94681.91
2023-04-20T18:36:48.527Z,94688.22
2023-04-20T18:39:16.585Z,94693.91
2023-04-20T18:41:44.765Z,94697.19
2023-04-20T18:44:12.958Z,94702.41
2023-04-20T18:46:42.466Z,94707.25
2023-04-20T18:49:11.706Z,94699.13
2023-04-20T18:51:40.506Z,94700.34
2023-04-20T18:54:08.456Z,94699.53
2023-04-20T18:56:38.884Z,94699.34
2023-04-20T18:59:08.823Z,94690.63
2023-04-20T19:01:40.890Z,94695.84
2023-04-20T19:04:09.209Z,94701.91
2023-04-20T19:06:42.445Z,94691.75
2023-04-20T19:09:11.824Z,94696.28
2023-04-20T19:11:40.405Z,94686.91
2023-04-20T19:14:08.587Z,94684.38
2023-04-20T19:16:37.444Z,94695.84
2023-04-20T19:19:06.008Z,94696.75
2023-04-20T19:21:35.258Z,94681.53
2023-04-20T19:24:04.011Z,94685.06
2023-04-20T19:26:32.382Z,94688.91
2023-04-20T19:29:00.761Z,94699.13
2023-04-20T19:31:34.285Z,94695.53
2023-04-20T19:34:04.022Z,94696.81
2023-04-20T19:36:32.991Z,94703.19
2023-04-20T19:39:02.289Z,94704.03
2023-04-20T19:41:30.843Z,94713.72
2023-04-20T19:43:59.760Z,94705.66
2023-04-20T19:46:31.122Z,94709.91
2023-04-20T19:49:00.900Z,94718.59
2023-04-20T19:51:29.677Z,94711.69
2023-04-20T19:53:59.809Z,94716.22
2023-04-20T19:56:28.203Z,94710.91
2023-04-20T19:58:56.196Z,94717.97
2023-04-20T20:01:24.664Z,94714.44
2023-04-20T20:03:52.934Z,94731.00
2023-04-20T20:06:22.032Z,94721.88
2023-04-20T20:08:50.288Z,94721.88
2023-04-20T20:11:19.077Z,94721.16
2023-04-20T20:13:47.020Z,94725.72
2023-04-20T20:16:16.698Z,94716.84
2023-04-20T20:18:45.240Z,94707.22
2023-04-20T20:21:13.398Z,94714.13
2023-04-20T20:23:41.475Z,94719.97
2023-04-20T20:26:09.692Z,94721.50
2023-04-20T20:28:37.589Z,94713.34
2023-04-20T20:31:06.012Z,94713.56
2023-04-20T20:33:33.980Z,94715.09
2023-04-20T20:36:04.561Z,94703.44
2023-04-20T20:38:33.209Z,94721.97
2023-04-20T20:41:02.077Z,94717.13
2023-04-20T20:43:31.774Z,94719.66
2023-04-20T20:46:00.147Z,94716.56
2023-04-20T20:48:27.940Z,94716.09
2023-04-20T20:50:56.494Z,94703.88
2023-04-20T20:53:24.588Z,94694.19
2023-04-20T20:55:56.738Z,94690.91
2023-04-20T20:58:24.695Z,94703.63
2023-04-20T21:00:54.341Z,94701.34
2023-04-20T21:03:26.449Z,94690.63
2023-04-20T21:05:55.011Z,94690.63
2023-04-20T21:08:22.926Z,94699.78
2023-04-20T21:10:51.318Z,94691.41
2023-04-20T21:13:19.375Z,94689.88
2023-04-20T21:15:47.530Z,94680.94
2023-04-20T21:18:15.459Z,94671.81
2023-04-20T21:20:43.901Z,94669.81
2023-04-20T21:23:12.145Z,94672.59
2023-04-20T21:25:40.640Z,94683.28
2023-04-20T21:28:08.568Z,94696.47
2023-04-20T21:30:37.229Z,94690.91
2023-04-20T21:33:07.409Z,94674.38
2023-04-20T21:35:36.942Z,94679.72
2023-04-20T21:38:05.072Z,94677.69
2023-04-20T21:40:35.084Z,94686.63
2023-04-20T21:43:03.171Z,94694.75
2023-04-20T21:45:31.397Z,94694.00
2023-04-20T21:48:00.437Z,94695.31
2023-04-20T21:50:28.959Z,94690.47
2023-04-20T21:52:56.889Z,94681.06
2023-04-20T21:55:25.263Z,94684.38
2023-04-20T21:57:53.612Z,94693.28
2023-04-20T22:00:22.277Z,94691.00
2023-04-20T22:02:50.583Z,94692.50
2023-04-20T22:05:19.217Z,94694.56
2023-04-20T22:07:47.072Z,94688.44
2023-04-20T22:10:15.608Z,94679.34
2023-04-20T22:12:45.035Z,94674.25
2023-04-20T22:15:14.718Z,94681.09
2023-04-20T22:17:47.989Z,94687.69
2023-04-20T22:20:19.545Z,94679.31
2023-04-20T22:22:47.537Z,94666.88
2023-04-20T22:25:15.879Z,94670.44
2023-04-20T22:27:44.149Z,94674.22
2023-04-20T22:30:12.801Z,94665.09
2023-04-20T22:32:41.331Z,94678.03
2023-04-20T22:35:10.454Z,94686.97
2023-04-20T22:37:38.439Z,94694.31
2023-04-20T22:40:07.929Z,94699.41
2023-04-20T22:42:38.808Z,94702.94
2023-04-20T22:45:10.823Z,94710.81
2023-04-20T22:47:39.365Z,94714.13
2023-04-20T22:50:10.895Z,94726.81
2023-04-20T22:52:40.533Z,94712.09
2023-04-20T22:55:10.759Z,94717.19
2023-04-20T22:57:39.425Z,94713.13
2023-04-20T23:00:11.038Z,94714.41
2023-04-20T23:02:39.405Z,94711.81
2023-04-20T23:05:07.977Z,94715.41
2023-04-20T23:07:36.223Z,94696.59
2023-04-20T23:10:06.413Z,94691.28
2023-04-20T23:12:34.248Z,94683.63
2023-04-20T23:15:02.712Z,94673.72
2023-04-20T23:17:34.253Z,94671.47
2023-04-20T23:20:02.498Z,94664.31
2023-04-20T23:22:32.023Z,94669.13
2023-04-20T23:25:00.368Z,94668.88
2023-04-20T23:27:28.227Z,94672.69
2023-04-20T23:29:56.438Z,94681.53
2023-04-20T23:32:24.956Z,94672.91
2023-04-20T23:34:53.216Z,94667.88
2023-04-20T23:37:21.471Z,94658.44
2023-04-20T23:39:49.682Z,94641.72
2023-04-20T23:42:17.512Z,94649.59
2023-04-20T23:44:46.101Z,94651.09
2023-04-20T23:47:15.833Z,94648.31
2023-04-20T23:49:44.078Z,94656.69
2023-04-20T23:52:12.055Z,94657.19
2023-04-20T23:54:40.286Z,94649.31
2023-04-20T23:57:08.360Z,94640.44
2023-04-20T23:59:36.599Z,94641.44
